TimePST,TemperatureF,Dew PointF,Humidity,Sea Level PressureIn,VisibilityMPH,Wind Direction,Wind SpeedMPH,Gust SpeedMPH,PrecipitationIn,Events,Conditions,WindDirDegrees,DateUTC
12:53 AM,41.0,35.1,79,30.39,10.0,SSW,5.8,-,0.00,,Overcast,210,2013-02-26 08:53:00
1:53 AM,39.9,35.1,83,30.39,10.0,Calm,Calm,-,0.00,,Overcast,0,2013-02-26 09:53:00
2:53 AM,39.0,36.0,89,30.38,10.0,Calm,Calm,-,N/A,,Overcast,0,2013-02-26 10:53:00
3:53 AM,39.0,36.0,89,30.39,10.0,Calm,Calm,-,N/A,,Overcast,0,2013-02-26 11:53:00
4:53 AM,39.0,36.0,89,30.39,10.0,Calm,Calm,-,N/A,,Overcast,0,2013-02-26 12:53:00
5:53 AM,39.0,36.0,89,30.40,10.0,Calm,Calm,-,N/A,,Overcast,0,2013-02-26 13:53:00
6:53 AM,37.9,35.1,89,30.39,10.0,Calm,Calm,-,N/A,,Overcast,0,2013-02-26 14:53:00
7:10 AM,35.6,33.8,93,30.39,10.0,Calm,Calm,-,N/A,,Overcast,0,2013-02-26 15:10:00
7:53 AM,39.0,36.0,89,30.39,10.0,Calm,Calm,-,N/A,,Overcast,0,2013-02-26 15:53:00
8:14 AM,39.2,35.6,87,30.38,10.0,Calm,Calm,-,N/A,,Mostly Cloudy,0,2013-02-26 16:14:00
8:31 AM,39.2,35.6,87,30.38,10.0,East,3.5,-,N/A,,Partly Cloudy,80,2013-02-26 16:31:00
8:53 AM,41.0,37.0,86,30.38,10.0,Calm,Calm,-,N/A,,Clear,0,2013-02-26 16:53:00
9:53 AM,44.1,36.0,73,30.37,10.0,East,3.5,-,N/A,,Clear,80,2013-02-26 17:53:00
10:53 AM,46.0,36.0,68,30.36,10.0,Calm,Calm,-,N/A,,Mostly Cloudy,0,2013-02-26 18:53:00
11:53 AM,46.0,36.0,68,30.35,10.0,Variable,3.5,-,N/A,,Scattered Clouds,0,2013-02-26 19:53:00
12:53 PM,46.9,35.1,63,30.34,10.0,NW,3.5,-,N/A,,Scattered Clouds,310,2013-02-26 20:53:00
1:53 PM,46.9,33.1,59,30.31,10.0,Calm,Calm,-,N/A,,Clear,0,2013-02-26 21:53:00
2:53 PM,48.9,33.1,54,30.28,10.0,ESE,8.1,-,N/A,,Clear,110,2013-02-26 22:53:00
3:53 PM,48.9,34.0,56,30.27,10.0,East,5.8,-,N/A,,Clear,80,2013-02-26 23:53:00
4:53 PM,46.9,34.0,61,30.27,10.0,East,4.6,-,N/A,,Clear,80,2013-02-27 00:53:00
5:53 PM,46.0,34.0,63,30.28,10.0,East,4.6,-,N/A,,Scattered Clouds,100,2013-02-27 01:53:00
6:53 PM,46.0,34.0,63,30.25,10.0,East,9.2,-,N/A,,Overcast,90,2013-02-27 02:53:00
7:53 PM,44.1,36.0,73,30.26,10.0,ESE,4.6,-,N/A,,Overcast,110,2013-02-27 03:53:00
8:53 PM,45.0,36.0,71,30.26,10.0,East,9.2,-,N/A,,Overcast,90,2013-02-27 04:53:00
9:53 PM,45.0,36.0,71,30.26,10.0,East,5.8,-,N/A,,Overcast,100,2013-02-27 05:53:00
10:53 PM,44.1,37.0,76,30.27,10.0,East,5.8,-,N/A,,Overcast,80,2013-02-27 06:53:00
11:53 PM,44.1,37.0,76,30.28,10.0,ENE,4.6,-,N/A,,Overcast,70,2013-02-27 07:53:00